Time;durP1;ratioP1;P1;durP2;ratioP2;P2;SDS_P1;SDS_P2;PMS_P1;PMS_P2;Temp;Humidity;BMP_temperature;BMP_pressure;BME280_temperature;BME280_humidity;BME280_pressure;Samples;Min_cycle;Max_cycle;Signal;HPM_P1;HPM_P2
2022/08/21 00:00:52;;;;;;;8.30;5.70;;;;;;;;;;6273378;22;20190;-73
2022/08/21 00:03:18;;;;;;;6.88;4.60;;;;;;;;;;6275393;22;20144;-73
2022/08/21 00:05:45;;;;;;;8.15;5.72;;;;;;;;;;6273867;22;20636;-73
2022/08/21 00:08:10;;;;;;;5.45;4.43;;;;;;;;;;6274876;22;20149;-73
2022/08/21 00:10:35;;;;;;;5.80;5.18;;;;;;;;;;6273113;22;20203;-73
2022/08/21 00:13:02;;;;;;;4.57;4.15;;;;;;;;;;6273672;22;20147;-73
2022/08/21 00:15:32;;;;;;;9.55;5.05;;;;;;;;;;6273907;22;20155;-73
2022/08/21 00:17:58;;;;;;;5.00;4.50;;;;;;;;;;6273080;22;20513;-73
2022/08/21 00:20:24;;;;;;;10.13;6.97;;;;;;;;;;6273001;22;20875;-73
2022/08/21 00:22:50;;;;;;;5.75;4.47;;;;;;;;;;6272976;22;20184;-73
2022/08/21 00:25:15;;;;;;;7.18;5.10;;;;;;;;;;6273969;22;20171;-73
2022/08/21 00:27:46;;;;;;;8.50;5.55;;;;;;;;;;6273340;22;20213;-73
2022/08/21 00:30:12;;;;;;;4.97;4.20;;;;;;;;;;6273349;22;20247;-73
2022/08/21 00:32:38;;;;;;;6.57;4.35;;;;;;;;;;6296972;22;20195;-73
2022/08/21 00:35:05;;;;;;;5.35;4.45;;;;;;;;;;6273618;22;20152;-73
2022/08/21 00:37:30;;;;;;;7.57;5.25;;;;;;;;;;6274254;22;20227;-73
2022/08/21 00:39:56;;;;;;;5.88;4.63;;;;;;;;;;6273332;22;20203;-73
2022/08/21 00:42:21;;;;;;;5.70;4.63;;;;;;;;;;6272733;22;20488;-71
2022/08/21 00:44:48;;;;;;;6.15;5.10;;;;;;;;;;6297411;22;20267;-73
2022/08/21 00:47:13;;;;;;;10.10;4.90;;;;;;;;;;6273449;22;20168;-73
2022/08/21 00:49:38;;;;;;;6.82;4.65;;;;;;;;;;6273965;22;20152;-73
2022/08/21 00:52:05;;;;;;;7.43;4.93;;;;;;;;;;6273037;22;20156;-72
2022/08/21 00:54:30;;;;;;;6.90;5.47;;;;;;;;;;6273173;22;20140;-73
2022/08/21 00:56:58;;;;;;;7.22;4.35;;;;;;;;;;6273467;22;20239;-73
2022/08/21 00:59:25;;;;;;;8.20;4.93;;;;;;;;;;6272982;22;20147;-72
2022/08/21 01:01:51;;;;;;;7.40;4.10;;;;;;;;;;6272252;22;20176;-73
2022/08/21 01:04:17;;;;;;;6.57;4.22;;;;;;;;;;6272916;22;20224;-73
2022/08/21 01:06:42;;;;;;;5.75;4.55;;;;;;;;;;6273099;22;20631;-73
2022/08/21 01:09:08;;;;;;;5.32;4.68;;;;;;;;;;6297204;22;20601;-73
2022/08/21 01:11:33;;;;;;;4.88;4.43;;;;;;;;;;6270849;22;20176;-71
2022/08/21 01:13:59;;;;;;;13.23;5.75;;;;;;;;;;6273570;22;20140;-73
2022/08/21 01:16:25;;;;;;;6.78;5.25;;;;;;;;;;6272778;22;20148;-72
2022/08/21 01:18:50;;;;;;;5.75;4.80;;;;;;;;;;6273211;22;20156;-72
2022/08/21 01:21:18;;;;;;;5.40;4.38;;;;;;;;;;6271783;22;20192;-72
2022/08/21 01:23:45;;;;;;;6.18;4.70;;;;;;;;;;6272563;22;20203;-72
2022/08/21 01:26:10;;;;;;;7.90;5.00;;;;;;;;;;6273068;22;20180;-72
2022/08/21 01:28:56;;;;;;;5.60;5.03;;;;;;;;;;6273582;22;20176;-72
2022/08/21 01:31:23;;;;;;;8.30;4.80;;;;;;;;;;6271138;22;20168;-72
2022/08/21 01:33:48;;;;;;;6.20;4.80;;;;;;;;;;6272731;22;20172;-72
2022/08/21 01:36:13;;;;;;;10.98;5.45;;;;;;;;;;6272217;22;20144;-72
2022/08/21 01:38:38;;;;;;;7.20;5.47;;;;;;;;;;6273212;22;20641;-72
2022/08/21 01:41:04;;;;;;;8.57;4.88;;;;;;;;;;6272939;22;20265;-72
2022/08/21 01:43:29;;;;;;;6.85;5.13;;;;;;;;;;6272150;22;20155;-72
2022/08/21 01:45:54;;;;;;;10.30;5.80;;;;;;;;;;6273204;22;20182;-72
2022/08/21 01:48:19;;;;;;;6.78;5.75;;;;;;;;;;6272130;22;20235;-72
2022/08/21 01:50:44;;;;;;;8.95;5.03;;;;;;;;;;6273528;22;20554;-73
2022/08/21 01:53:10;;;;;;;7.70;5.88;;;;;;;;;;6271085;22;20147;-72
2022/08/21 01:55:35;;;;;;;7.57;5.18;;;;;;;;;;6273549;22;20230;-73
2022/08/21 01:58:00;;;;;;;7.75;5.35;;;;;;;;;;6272638;22;20144;-72
2022/08/21 02:00:25;;;;;;;6.28;5.53;;;;;;;;;;6272920;22;20184;-72
2022/08/21 02:02:51;;;;;;;8.02;5.60;;;;;;;;;;6270853;22;20190;-72
2022/08/21 02:05:16;;;;;;;9.68;6.53;;;;;;;;;;6273831;22;20180;-72
2022/08/21 02:07:44;;;;;;;9.18;6.35;;;;;;;;;;6273210;22;20151;-72
2022/08/21 02:10:11;;;;;;;9.90;6.88;;;;;;;;;;6273118;22;20171;-72
2022/08/21 02:12:37;;;;;;;7.82;6.03;;;;;;;;;;6272168;22;20144;-72
2022/08/21 02:15:04;;;;;;;8.95;6.47;;;;;;;;;;6271094;22;20162;-72
2022/08/21 02:17:36;;;;;;;9.60;6.93;;;;;;;;;;6273224;22;20144;-72
2022/08/21 02:20:02;;;;;;;9.38;7.43;;;;;;;;;;6296499;22;20214;-72
2022/08/21 02:22:28;;;;;;;6.90;5.72;;;;;;;;;;6272500;22;20152;-72
2022/08/21 02:24:53;;;;;;;9.35;6.63;;;;;;;;;;6272945;22;20259;-72
2022/08/21 02:27:18;;;;;;;9.25;6.78;;;;;;;;;;6271653;22;20166;-72
2022/08/21 02:29:43;;;;;;;7.95;5.60;;;;;;;;;;6272179;22;20149;-72
2022/08/21 02:32:08;;;;;;;9.68;6.28;;;;;;;;;;6272401;22;20202;-72
2022/08/21 02:34:33;;;;;;;8.50;5.75;;;;;;;;;;6272803;22;20176;-72
2022/08/21 02:36:59;;;;;;;7.93;5.70;;;;;;;;;;6271706;22;20153;-72
2022/08/21 02:39:24;;;;;;;7.68;6.38;;;;;;;;;;6272064;22;20442;-72
2022/08/21 02:41:49;;;;;;;7.47;6.13;;;;;;;;;;6272026;22;20186;-72
2022/08/21 02:44:14;;;;;;;6.95;6.25;;;;;;;;;;6273518;22;20148;-72
2022/08/21 02:46:39;;;;;;;10.43;7.13;;;;;;;;;;6272815;22;20221;-72
2022/08/21 02:49:04;;;;;;;9.80;6.70;;;;;;;;;;6274760;22;20152;-72
2022/08/21 02:51:30;;;;;;;7.25;6.55;;;;;;;;;;6274295;22;20175;-72
2022/08/21 02:53:55;;;;;;;8.70;6.40;;;;;;;;;;6273944;22;20642;-72
2022/08/21 02:56:21;;;;;;;8.50;6.22;;;;;;;;;;6275093;22;20194;-72
2022/08/21 02:58:49;;;;;;;9.15;6.93;;;;;;;;;;6274499;22;20163;-72
2022/08/21 03:01:14;;;;;;;8.25;6.25;;;;;;;;;;6272865;22;20278;-72
2022/08/21 03:03:41;;;;;;;7.38;6.47;;;;;;;;;;6297895;22;20153;-72
2022/08/21 03:06:07;;;;;;;9.05;6.65;;;;;;;;;;6274663;22;20196;-72
2022/08/21 03:08:33;;;;;;;9.32;7.13;;;;;;;;;;6275037;22;20141;-72
2022/08/21 03:11:01;;;;;;;8.75;6.82;;;;;;;;;;6274591;22;20219;-72
2022/08/21 03:13:27;;;;;;;8.65;6.35;;;;;;;;;;6273998;22;20140;-72
2022/08/21 03:15:53;;;;;;;7.15;5.95;;;;;;;;;;6274858;22;20151;-72
2022/08/21 03:18:18;;;;;;;12.88;7.60;;;;;;;;;;6273576;22;20170;-73
2022/08/21 03:20:44;;;;;;;11.55;7.53;;;;;;;;;;6273146;22;20216;-73
2022/08/21 03:23:11;;;;;;;10.45;7.65;;;;;;;;;;6273783;22;20156;-72
2022/08/21 03:25:37;;;;;;;11.63;7.50;;;;;;;;;;6275183;22;20175;-72
2022/08/21 03:28:03;;;;;;;8.98;7.00;;;;;;;;;;6273869;22;20137;-72
2022/08/21 03:30:30;;;;;;;10.90;6.70;;;;;;;;;;6274014;22;20616;-72
2022/08/21 03:32:56;;;;;;;11.82;6.93;;;;;;;;;;6273718;22;20231;-72
2022/08/21 03:35:21;;;;;;;8.50;7.10;;;;;;;;;;6272096;22;20185;-72
2022/08/21 03:37:47;;;;;;;8.70;6.82;;;;;;;;;;6273498;22;20588;-72
2022/08/21 03:40:14;;;;;;;9.73;7.45;;;;;;;;;;6274236;22;20183;-72
2022/08/21 03:42:39;;;;;;;14.27;8.13;;;;;;;;;;6272010;22;20509;-72
2022/08/21 03:45:05;;;;;;;11.52;8.07;;;;;;;;;;6272517;22;20180;-72
2022/08/21 03:47:30;;;;;;;12.30;8.40;;;;;;;;;;6273474;22;20227;-72
2022/08/21 03:49:55;;;;;;;12.52;8.13;;;;;;;;;;6274941;22;20165;-72
2022/08/21 03:52:21;;;;;;;18.15;9.80;;;;;;;;;;6272804;22;20164;-72
2022/08/21 03:54:46;;;;;;;13.50;8.95;;;;;;;;;;6274498;22;20495;-72
2022/08/21 03:57:11;;;;;;;12.88;9.68;;;;;;;;;;6273123;22;20580;-72
2022/08/21 03:59:37;;;;;;;14.90;9.77;;;;;;;;;;6275076;22;20148;-72
2022/08/21 04:02:04;;;;;;;11.38;8.77;;;;;;;;;;6272120;22;20164;-72
2022/08/21 04:04:29;;;;;;;13.63;9.20;;;;;;;;;;6274365;22;20152;-72
2022/08/21 04:06:55;;;;;;;15.55;9.80;;;;;;;;;;6273844;22;20180;-72
2022/08/21 04:09:20;;;;;;;14.30;9.82;;;;;;;;;;6273625;22;20140;-72
2022/08/21 04:11:46;;;;;;;17.58;11.20;;;;;;;;;;6273253;22;20164;-72
2022/08/21 04:14:12;;;;;;;14.07;10.00;;;;;;;;;;6272072;22;20148;-72
2022/08/21 04:16:37;;;;;;;14.88;10.35;;;;;;;;;;6273089;22;20152;-72
2022/08/21 04:19:02;;;;;;;15.07;10.98;;;;;;;;;;6274185;22;20655;-72
2022/08/21 04:21:27;;;;;;;16.67;10.55;;;;;;;;;;6272617;22;20172;-72
2022/08/21 04:23:56;;;;;;;15.15;11.60;;;;;;;;;;6273586;22;20595;-72
2022/08/21 04:26:21;;;;;;;14.77;11.35;;;;;;;;;;6274122;22;20271;-73
2022/08/21 04:28:46;;;;;;;19.20;12.63;;;;;;;;;;6273728;22;20147;-72
2022/08/21 04:31:12;;;;;;;20.67;11.52;;;;;;;;;;6272184;22;20164;-72
2022/08/21 04:33:37;;;;;;;22.60;11.68;;;;;;;;;;6271281;22;20152;-73
2022/08/21 04:36:03;;;;;;;18.33;10.27;;;;;;;;;;6273893;22;20210;-72
2022/08/21 04:38:28;;;;;;;15.20;11.27;;;;;;;;;;6273588;22;20489;-72
2022/08/21 04:40:53;;;;;;;14.43;12.15;;;;;;;;;;6272411;22;20173;-72
2022/08/21 04:43:20;;;;;;;19.08;10.95;;;;;;;;;;6273309;22;20148;-72
2022/08/21 04:45:47;;;;;;;16.08;10.38;;;;;;;;;;6272320;22;20180;-72
2022/08/21 04:48:13;;;;;;;21.52;11.43;;;;;;;;;;6270747;22;20156;-72
2022/08/21 04:50:44;;;;;;;15.70;10.82;;;;;;;;;;6271960;22;20165;-73
2022/08/21 04:53:13;;;;;;;13.45;9.65;;;;;;;;;;6273292;22;20146;-73
2022/08/21 04:55:39;;;;;;;13.23;10.07;;;;;;;;;;6273758;22;20530;-72
2022/08/21 04:58:06;;;;;;;18.90;11.73;;;;;;;;;;6273801;22;20160;-72
2022/08/21 05:00:31;;;;;;;20.25;11.70;;;;;;;;;;6272037;22;20184;-71
2022/08/21 05:02:58;;;;;;;16.13;11.85;;;;;;;;;;6273252;22;20489;-71
2022/08/21 05:05:24;;;;;;;19.05;11.57;;;;;;;;;;6273811;22;20650;-73
2022/08/21 05:07:49;;;;;;;14.68;10.73;;;;;;;;;;6272790;22;20148;-73
2022/08/21 05:10:15;;;;;;;14.52;10.43;;;;;;;;;;6272957;22;20689;-73
2022/08/21 05:12:41;;;;;;;15.90;10.07;;;;;;;;;;6273070;22;20171;-72
2022/08/21 05:15:07;;;;;;;17.50;11.10;;;;;;;;;;6273795;22;20599;-72
2022/08/21 05:17:32;;;;;;;15.18;10.00;;;;;;;;;;6273348;22;20175;-72
2022/08/21 05:19:58;;;;;;;18.27;11.73;;;;;;;;;;6272386;22;20214;-74
2022/08/21 05:22:24;;;;;;;16.33;10.35;;;;;;;;;;6273092;22;20480;-72
2022/08/21 05:24:50;;;;;;;14.13;9.27;;;;;;;;;;6273057;22;20219;-74
2022/08/21 05:27:16;;;;;;;15.73;10.00;;;;;;;;;;6272926;22;20174;-71
2022/08/21 05:29:41;;;;;;;11.68;9.70;;;;;;;;;;6273761;22;20183;-73
2022/08/21 05:32:10;;;;;;;13.55;9.05;;;;;;;;;;6272678;22;20141;-73
2022/08/21 05:34:35;;;;;;;16.55;9.02;;;;;;;;;;6272898;22;20151;-74
2022/08/21 05:37:00;;;;;;;14.27;8.70;;;;;;;;;;6272210;22;20148;-74
2022/08/21 05:39:26;;;;;;;15.70;8.65;;;;;;;;;;6272427;22;20148;-74
2022/08/21 05:41:51;;;;;;;14.05;8.98;;;;;;;;;;6272226;22;20516;-73
2022/08/21 05:44:16;;;;;;;15.35;8.63;;;;;;;;;;6272595;22;20160;-73
2022/08/21 05:46:41;;;;;;;15.27;8.52;;;;;;;;;;6273279;22;20175;-73
2022/08/21 05:49:06;;;;;;;15.43;8.52;;;;;;;;;;6272337;22;20154;-72
2022/08/21 05:51:32;;;;;;;12.32;7.75;;;;;;;;;;6270710;22;20168;-73
2022/08/21 05:53:57;;;;;;;13.20;7.97;;;;;;;;;;6272765;22;20141;-72
2022/08/21 05:56:22;;;;;;;13.70;7.30;;;;;;;;;;6273410;22;20171;-72
2022/08/21 05:58:47;;;;;;;12.73;6.90;;;;;;;;;;6273944;22;20151;-72
2022/08/21 06:01:14;;;;;;;14.48;8.10;;;;;;;;;;6271426;22;20183;-72
2022/08/21 06:03:40;;;;;;;13.35;6.95;;;;;;;;;;6270620;22;20159;-72
2022/08/21 06:06:05;;;;;;;12.90;7.50;;;;;;;;;;6296685;22;20556;-72
2022/08/21 06:08:31;;;;;;;17.10;6.38;;;;;;;;;;6272580;22;20631;-72
2022/08/21 06:10:57;;;;;;;12.48;5.88;;;;;;;;;;6270460;22;20523;-72
2022/08/21 06:13:23;;;;;;;9.45;7.10;;;;;;;;;;6270925;22;20149;-72
2022/08/21 06:15:48;;;;;;;14.48;6.28;;;;;;;;;;6297818;22;20159;-73
2022/08/21 06:18:14;;;;;;;9.52;5.85;;;;;;;;;;6273455;22;20159;-73
2022/08/21 06:20:39;;;;;;;14.63;7.32;;;;;;;;;;6271975;22;20195;-74
2022/08/21 06:23:05;;;;;;;8.57;5.50;;;;;;;;;;6272092;22;20153;-74
2022/08/21 06:25:30;;;;;;;14.18;5.63;;;;;;;;;;6271917;22;20615;-72
2022/08/21 06:28:07;;;;;;;10.27;5.90;;;;;;;;;;6273089;22;20151;-74
2022/08/21 06:30:32;;;;;;;10.90;6.10;;;;;;;;;;6272448;22;20682;-72
2022/08/21 06:32:57;;;;;;;8.85;5.32;;;;;;;;;;6271463;22;20147;-72
2022/08/21 06:35:24;;;;;;;14.13;5.97;;;;;;;;;;6273232;22;20155;-72
2022/08/21 06:37:49;;;;;;;12.63;5.32;;;;;;;;;;6272343;22;20178;-71
2022/08/21 06:40:14;;;;;;;11.93;5.45;;;;;;;;;;6272572;22;20172;-73
2022/08/21 06:42:40;;;;;;;11.43;5.07;;;;;;;;;;6272233;22;20235;-74
2022/08/21 06:45:05;;;;;;;12.50;5.43;;;;;;;;;;6272436;22;20229;-74
2022/08/21 06:47:30;;;;;;;10.63;5.50;;;;;;;;;;6272619;22;20145;-73
2022/08/21 06:49:55;;;;;;;10.85;5.07;;;;;;;;;;6272210;22;20172;-73
2022/08/21 06:52:21;;;;;;;11.43;5.53;;;;;;;;;;6271810;22;20151;-73
2022/08/21 06:54:46;;;;;;;13.98;5.70;;;;;;;;;;6271137;22;20354;-73
2022/08/21 06:57:11;;;;;;;11.95;5.65;;;;;;;;;;6272324;22;20152;-73
2022/08/21 06:59:36;;;;;;;11.57;5.40;;;;;;;;;;6271994;22;20654;-73
2022/08/21 07:02:02;;;;;;;10.48;4.63;;;;;;;;;;6270788;22;20164;-71
2022/08/21 07:04:27;;;;;;;8.43;4.50;;;;;;;;;;6272116;22;20148;-73
2022/08/21 07:06:53;;;;;;;10.38;4.25;;;;;;;;;;6272487;22;20176;-72
2022/08/21 07:09:18;;;;;;;11.65;5.38;;;;;;;;;;6272299;22;20242;-72
2022/08/21 07:11:45;;;;;;;9.35;4.53;;;;;;;;;;6272335;22;20164;-72
2022/08/21 07:14:10;;;;;;;11.38;4.85;;;;;;;;;;6272813;22;20165;-71
2022/08/21 07:16:35;;;;;;;9.90;4.63;;;;;;;;;;6271030;22;20494;-71
2022/08/21 07:19:01;;;;;;;8.48;4.35;;;;;;;;;;6272801;22;20400;-71
2022/08/21 07:21:26;;;;;;;14.88;6.10;;;;;;;;;;6271373;22;20243;-72
2022/08/21 07:23:51;;;;;;;11.40;4.82;;;;;;;;;;6272149;22;20152;-72
2022/08/21 07:26:17;;;;;;;12.20;4.45;;;;;;;;;;6273362;22;20168;-72
2022/08/21 07:28:43;;;;;;;13.77;5.13;;;;;;;;;;6273381;22;20159;-72
2022/08/21 07:31:09;;;;;;;12.05;5.43;;;;;;;;;;6274174;22;20164;-72
2022/08/21 07:33:34;;;;;;;12.25;4.72;;;;;;;;;;6274894;22;20145;-72
2022/08/21 07:36:00;;;;;;;12.10;4.88;;;;;;;;;;6272596;22;20148;-72
2022/08/21 07:38:25;;;;;;;8.95;4.53;;;;;;;;;;6275042;22;20160;-71
2022/08/21 07:40:52;;;;;;;9.07;3.75;;;;;;;;;;6274707;22;20200;-72
2022/08/21 07:43:17;;;;;;;11.38;5.03;;;;;;;;;;6273545;22;20227;-72
2022/08/21 07:45:43;;;;;;;9.57;5.20;;;;;;;;;;6273136;22;20702;-71
2022/08/21 07:48:08;;;;;;;7.68;4.72;;;;;;;;;;6274844;22;20495;-70
2022/08/21 07:50:33;;;;;;;11.20;4.88;;;;;;;;;;6272713;22;20161;-71
2022/08/21 07:52:59;;;;;;;7.20;3.65;;;;;;;;;;6273466;22;20232;-70
2022/08/21 07:55:24;;;;;;;8.90;4.20;;;;;;;;;;6274225;22;20164;-71
2022/08/21 07:57:50;;;;;;;11.18;4.53;;;;;;;;;;6273624;22;20705;-71
2022/08/21 08:00:17;;;;;;;13.02;3.65;;;;;;;;;;6273575;22;20180;-70
2022/08/21 08:02:45;;;;;;;9.48;3.95;;;;;;;;;;6271801;22;20143;-70
2022/08/21 08:05:11;;;;;;;9.30;4.30;;;;;;;;;;6271174;22;20172;-72
2022/08/21 08:07:36;;;;;;;10.77;4.57;;;;;;;;;;6270549;22;20148;-71
2022/08/21 08:10:02;;;;;;;11.73;4.28;;;;;;;;;;6272307;22;20225;-73
2022/08/21 08:12:29;;;;;;;8.13;4.80;;;;;;;;;;6272341;22;20152;-72
2022/08/21 08:14:56;;;;;;;10.63;4.60;;;;;;;;;;6271563;22;20694;-73
2022/08/21 08:17:23;;;;;;;8.43;3.70;;;;;;;;;;6295352;22;20148;-74
2022/08/21 08:19:49;;;;;;;10.57;4.63;;;;;;;;;;6272468;22;20149;-72
2022/08/21 08:22:15;;;;;;;9.25;4.20;;;;;;;;;;6271255;22;20652;-71
2022/08/21 08:24:40;;;;;;;9.35;4.07;;;;;;;;;;6271984;22;20151;-72
2022/08/21 08:27:05;;;;;;;9.23;4.00;;;;;;;;;;6272137;22;20255;-72
2022/08/21 08:29:30;;;;;;;10.43;4.00;;;;;;;;;;6270973;22;20148;-73
2022/08/21 08:31:56;;;;;;;8.73;3.30;;;;;;;;;;6272478;22;20377;-73
2022/08/21 08:34:22;;;;;;;10.25;3.88;;;;;;;;;;6272028;22;20447;-73
2022/08/21 08:36:48;;;;;;;10.20;3.40;;;;;;;;;;6271601;22;20145;-73
2022/08/21 08:39:13;;;;;;;13.38;3.75;;;;;;;;;;6269264;22;20152;-73
2022/08/21 08:41:39;;;;;;;9.87;4.10;;;;;;;;;;6270527;22;20160;-73
2022/08/21 08:44:05;;;;;;;10.38;4.28;;;;;;;;;;6271361;22;20362;-75
2022/08/21 08:46:31;;;;;;;12.10;4.20;;;;;;;;;;6271850;22;20176;-74
2022/08/21 08:48:59;;;;;;;9.68;4.28;;;;;;;;;;6272129;22;20160;-75
2022/08/21 08:51:27;;;;;;;8.88;4.25;;;;;;;;;;6271694;22;20165;-74
2022/08/21 08:53:56;;;;;;;8.25;4.05;;;;;;;;;;6272494;22;20148;-74
2022/08/21 08:56:25;;;;;;;9.88;4.47;;;;;;;;;;6272183;22;20148;-74
2022/08/21 08:58:51;;;;;;;8.90;3.53;;;;;;;;;;6272053;22;20152;-74
2022/08/21 09:02:27;;;;;;;11.75;3.63;;;;;;;;;;5091617;27;20954;-79
2022/08/21 09:04:53;;;;;;;11.18;4.15;;;;;;;;;;5091440;28;20208;-78
2022/08/21 09:07:27;;;;;;;9.43;3.80;;;;;;;;;;5094195;28;20226;-76
2022/08/21 09:10:05;;;;;;;26.55;4.35;;;;;;;;;;5082674;28;20175;-85
2022/08/21 09:12:33;;;;;;;8.50;3.95;;;;;;;;;;5087575;28;20277;-87
2022/08/21 09:15:01;;;;;;;8.95;3.45;;;;;;;;;;5092184;22;20222;-74
2022/08/21 09:17:26;;;;;;;12.95;3.42;;;;;;;;;;5044096;28;20186;-72
2022/08/21 09:20:30;;;;;;;8.17;3.40;;;;;;;;;;5045639;28;20351;-72
2022/08/21 09:23:14;;;;;;;11.75;2.53;;;;;;;;;;5024215;28;20189;-72
2022/08/21 09:25:49;;;;;;;8.57;2.28;;;;;;;;;;5022178;28;20567;-72
2022/08/21 09:28:14;;;;;;;9.65;2.70;;;;;;;;;;5038725;28;20206;-72
2022/08/21 09:30:41;;;;;;;8.88;2.70;;;;;;;;;;5045406;28;20244;-69
2022/08/21 09:33:06;;;;;;;8.23;2.17;;;;;;;;;;5044570;28;20185;-72
2022/08/21 09:35:32;;;;;;;13.18;2.75;;;;;;;;;;5050100;28;20173;-72
2022/08/21 09:38:00;;;;;;;7.82;2.25;;;;;;;;;;5045082;28;20223;-72
2022/08/21 09:40:35;;;;;;;8.07;1.92;;;;;;;;;;5044401;28;20205;-71
2022/08/21 09:43:20;;;;;;;10.40;2.38;;;;;;;;;;5045794;28;20177;-71
2022/08/21 09:45:46;;;;;;;7.55;2.45;;;;;;;;;;5052382;28;20209;-71
2022/08/21 09:48:11;;;;;;;5.65;1.92;;;;;;;;;;5046728;28;20229;-72
2022/08/21 09:50:38;;;;;;;5.68;1.70;;;;;;;;;;5048827;28;20213;-71
2022/08/21 09:53:03;;;;;;;7.13;2.05;;;;;;;;;;5045426;28;20526;-72
2022/08/21 09:58:18;;;;;;;7.30;2.08;;;;;;;;;;5048415;28;20208;-71
2022/08/21 10:00:44;;;;;;;8.10;2.00;;;;;;;;;;5043046;28;20214;-72
2022/08/21 10:03:09;;;;;;;9.52;2.35;;;;;;;;;;5050947;28;20206;-72
2022/08/21 10:05:34;;;;;;;8.43;2.53;;;;;;;;;;5044798;28;20178;-72
2022/08/21 10:08:00;;;;;;;4.23;1.80;;;;;;;;;;5044878;28;20190;-73
2022/08/21 10:10:28;;;;;;;5.53;2.00;;;;;;;;;;5042003;28;20447;-72
2022/08/21 10:13:11;;;;;;;6.80;2.22;;;;;;;;;;5037511;28;20178;-72
2022/08/21 10:15:46;;;;;;;6.38;2.00;;;;;;;;;;5031772;28;20190;-72
2022/08/21 10:18:37;;;;;;;7.47;2.10;;;;;;;;;;5029975;28;20234;-72
2022/08/21 10:21:07;;;;;;;6.72;2.75;;;;;;;;;;5023908;28;20205;-72
2022/08/21 10:23:32;;;;;;;5.45;2.55;;;;;;;;;;5029010;28;20236;-73
2022/08/21 10:26:01;;;;;;;8.60;1.97;;;;;;;;;;5026767;28;20190;-72
2022/08/21 10:28:27;;;;;;;6.13;1.80;;;;;;;;;;5030383;28;20797;-72
2022/08/21 10:30:58;;;;;;;7.28;2.00;;;;;;;;;;5030526;28;20205;-72
2022/08/21 10:33:23;;;;;;;6.03;1.67;;;;;;;;;;5032736;28;20185;-71
2022/08/21 10:35:51;;;;;;;9.97;2.43;;;;;;;;;;5029802;28;20175;-73
2022/08/21 10:38:19;;;;;;;3.80;1.65;;;;;;;;;;5031658;28;20430;-73
2022/08/21 10:41:08;;;;;;;5.88;1.60;;;;;;;;;;5031607;28;20206;-73
2022/08/21 10:43:33;;;;;;;4.72;1.60;;;;;;;;;;5028936;28;20194;-72
2022/08/21 10:45:58;;;;;;;6.20;2.00;;;;;;;;;;5031181;28;20166;-72
2022/08/21 10:48:29;;;;;;;8.17;2.87;;;;;;;;;;5031269;28;20186;-74
2022/08/21 10:51:09;;;;;;;6.95;2.90;;;;;;;;;;5031858;28;20455;-72
2022/08/21 10:53:38;;;;;;;5.50;2.30;;;;;;;;;;5030642;28;20178;-71
2022/08/21 10:56:10;;;;;;;5.70;1.90;;;;;;;;;;5027655;28;20254;-73
2022/08/21 10:58:43;;;;;;;5.07;1.65;;;;;;;;;;5028769;28;20647;-72
2022/08/21 11:01:34;;;;;;;5.65;1.85;;;;;;;;;;5030239;28;20221;-72
2022/08/21 11:04:23;;;;;;;3.53;1.88;;;;;;;;;;5003348;28;20191;-72
2022/08/21 11:06:52;;;;;;;6.18;1.60;;;;;;;;;;5025048;28;20194;-72
2022/08/21 11:09:19;;;;;;;6.68;1.20;;;;;;;;;;5030210;28;20231;-73
2022/08/21 11:11:47;;;;;;;8.50;2.05;;;;;;;;;;5024004;28;20194;-72
2022/08/21 11:14:33;;;;;;;3.97;1.27;;;;;;;;;;5031003;28;20728;-72
2022/08/21 11:17:10;;;;;;;7.45;1.70;;;;;;;;;;5023125;28;20194;-72
2022/08/21 11:19:55;;;;;;;7.28;1.48;;;;;;;;;;5038892;28;20647;-72
2022/08/21 11:22:26;;;;;;;6.15;1.50;;;;;;;;;;5026921;28;20245;-71
2022/08/21 11:25:06;;;;;;;3.38;1.38;;;;;;;;;;5026275;28;20218;-72
2022/08/21 11:27:43;;;;;;;4.10;1.40;;;;;;;;;;5029759;28;20182;-72
2022/08/21 11:30:09;;;;;;;2.88;1.45;;;;;;;;;;5024393;28;20724;-72
2022/08/21 11:32:43;;;;;;;5.70;1.88;;;;;;;;;;5027907;28;20186;-71
2022/08/21 11:35:27;;;;;;;5.82;1.92;;;;;;;;;;5029589;28;20642;-72
2022/08/21 11:38:03;;;;;;;5.70;1.60;;;;;;;;;;5035965;28;20240;-71
2022/08/21 11:40:31;;;;;;;5.25;1.77;;;;;;;;;;5031732;28;20206;-72
2022/08/21 11:43:11;;;;;;;9.07;2.08;;;;;;;;;;5035343;28;20253;-71
2022/08/21 11:45:53;;;;;;;7.65;1.95;;;;;;;;;;5028880;28;20224;-71
2022/08/21 11:48:28;;;;;;;6.03;1.30;;;;;;;;;;5029769;28;20212;-71
2022/08/21 11:50:54;;;;;;;5.85;2.08;;;;;;;;;;5031897;28;20216;-70
2022/08/21 11:53:31;;;;;;;6.60;1.70;;;;;;;;;;5031180;28;20729;-71
2022/08/21 11:56:07;;;;;;;6.30;1.83;;;;;;;;;;5031610;28;20201;-71
2022/08/21 11:58:38;;;;;;;7.93;1.40;;;;;;;;;;5029991;28;20204;-72
2022/08/21 12:01:04;;;;;;;4.55;1.45;;;;;;;;;;5030668;28;20218;-71
2022/08/21 12:03:34;;;;;;;4.45;1.73;;;;;;;;;;5028329;28;20580;-72
2022/08/21 12:06:13;;;;;;;5.18;1.60;;;;;;;;;;5029339;28;20535;-73
2022/08/21 12:08:56;;;;;;;6.20;1.65;;;;;;;;;;5030353;28;20182;-72
2022/08/21 12:11:23;;;;;;;4.03;1.35;;;;;;;;;;5027466;28;20285;-72
2022/08/21 12:13:56;;;;;;;5.28;2.13;;;;;;;;;;5044082;28;20182;-72
2022/08/21 12:16:33;;;;;;;4.05;1.20;;;;;;;;;;5032587;28;20189;-72
2022/08/21 12:19:04;;;;;;;7.15;1.27;;;;;;;;;;5027225;28;20174;-72
2022/08/21 12:21:30;;;;;;;4.63;1.30;;;;;;;;;;5027163;28;20210;-72
2022/08/21 12:23:58;;;;;;;6.47;1.35;;;;;;;;;;5029218;28;20703;-72
2022/08/21 12:26:47;;;;;;;4.82;1.35;;;;;;;;;;5034000;28;20174;-72
2022/08/21 12:29:22;;;;;;;3.08;1.38;;;;;;;;;;5029868;28;20941;-73
2022/08/21 12:31:49;;;;;;;3.92;1.33;;;;;;;;;;5029351;28;20208;-73
2022/08/21 12:34:15;;;;;;;4.28;1.20;;;;;;;;;;5030862;28;20202;-73
2022/08/21 12:36:59;;;;;;;4.20;1.20;;;;;;;;;;5030034;28;20714;-72
2022/08/21 12:39:26;;;;;;;8.80;1.95;;;;;;;;;;5033395;28;20184;-72
2022/08/21 12:42:14;;;;;;;6.47;1.95;;;;;;;;;;5030653;28;20221;-72
2022/08/21 12:44:42;;;;;;;5.30;1.40;;;;;;;;;;5000660;28;20254;-72
2022/08/21 12:47:26;;;;;;;5.57;1.48;;;;;;;;;;5026686;28;20189;-72
2022/08/21 12:49:54;;;;;;;7.20;1.80;;;;;;;;;;5028882;28;20210;-72
2022/08/21 12:52:24;;;;;;;5.75;2.05;;;;;;;;;;5028725;28;20186;-73
2022/08/21 12:54:49;;;;;;;6.78;1.80;;;;;;;;;;5023874;28;20178;-72
2022/08/21 12:57:20;;;;;;;6.38;1.60;;;;;;;;;;5028521;28;20186;-72
2022/08/21 12:59:45;;;;;;;6.65;1.90;;;;;;;;;;5025529;28;20201;-72
2022/08/21 13:02:21;;;;;;;6.93;1.55;;;;;;;;;;5029161;28;20667;-72
2022/08/21 13:04:47;;;;;;;5.22;1.25;;;;;;;;;;5028680;28;20191;-72
2022/08/21 13:07:14;;;;;;;4.78;1.73;;;;;;;;;;5029083;28;20178;-73
2022/08/21 13:09:44;;;;;;;4.28;1.42;;;;;;;;;;5027204;28;20644;-72
2022/08/21 13:12:09;;;;;;;4.47;1.20;;;;;;;;;;5030442;28;20181;-74
2022/08/21 13:14:36;;;;;;;5.60;1.73;;;;;;;;;;5024700;28;20636;-73
2022/08/21 13:17:03;;;;;;;4.40;1.40;;;;;;;;;;5031515;28;20186;-74
2022/08/21 13:19:29;;;;;;;3.97;1.20;;;;;;;;;;5024165;28;20178;-74
2022/08/21 13:21:55;;;;;;;5.85;1.38;;;;;;;;;;5031227;28;20656;-74
2022/08/21 13:24:20;;;;;;;3.47;1.20;;;;;;;;;;5026215;28;20182;-74
2022/08/21 13:26:46;;;;;;;5.30;1.40;;;;;;;;;;5032658;28;20663;-74
2022/08/21 13:29:14;;;;;;;4.03;1.63;;;;;;;;;;5032480;28;20592;-75
2022/08/21 13:31:42;;;;;;;3.60;1.13;;;;;;;;;;5039679;28;20206;-74
2022/08/21 13:34:10;;;;;;;4.43;1.40;;;;;;;;;;5030446;28;20240;-74
2022/08/21 13:36:36;;;;;;;5.60;1.60;;;;;;;;;;5030547;28;20228;-74
2022/08/21 13:39:06;;;;;;;3.53;1.13;;;;;;;;;;5031946;28;20174;-69
2022/08/21 13:41:33;;;;;;;4.53;1.35;;;;;;;;;;5029163;28;20210;-73
2022/08/21 13:43:58;;;;;;;5.47;1.70;;;;;;;;;;5029665;28;20667;-73
2022/08/21 13:46:26;;;;;;;6.27;1.57;;;;;;;;;;5032287;28;20182;-74
2022/08/21 13:48:52;;;;;;;5.35;1.45;;;;;;;;;;5033828;28;20411;-73
2022/08/21 13:51:18;;;;;;;3.55;1.25;;;;;;;;;;5033916;28;20698;-73
2022/08/21 13:53:52;;;;;;;5.80;1.23;;;;;;;;;;5034104;28;20182;-73
2022/08/21 13:56:40;;;;;;;4.22;1.55;;;;;;;;;;5032679;28;20208;-72
2022/08/21 13:59:05;;;;;;;3.80;1.05;;;;;;;;;;5029672;28;20190;-73
2022/08/21 14:01:32;;;;;;;4.05;1.33;;;;;;;;;;5031999;28;20197;-72
2022/08/21 14:04:12;;;;;;;3.72;1.35;;;;;;;;;;5035424;28;20201;-72
2022/08/21 14:06:37;;;;;;;5.80;1.40;;;;;;;;;;5040557;28;20182;-72
2022/08/21 14:09:31;;;;;;;6.45;1.52;;;;;;;;;;5034065;28;20196;-72
2022/08/21 14:11:58;;;;;;;3.53;1.35;;;;;;;;;;5013817;28;20199;-73
2022/08/21 14:14:26;;;;;;;7.97;1.70;;;;;;;;;;5035205;28;20581;-73
2022/08/21 14:16:54;;;;;;;4.95;1.55;;;;;;;;;;5032900;28;20186;-73
2022/08/21 14:19:21;;;;;;;3.45;1.73;;;;;;;;;;5033074;28;20178;-73
2022/08/21 14:21:46;;;;;;;5.65;2.88;;;;;;;;;;5034336;28;20280;-72
2022/08/21 14:24:13;;;;;;;7.70;2.45;;;;;;;;;;5033565;28;20209;-74
2022/08/21 14:26:48;;;;;;;4.55;2.10;;;;;;;;;;5032498;28;20174;-73
2022/08/21 14:29:15;;;;;;;4.82;2.17;;;;;;;;;;5033270;28;20826;-73
2022/08/21 14:31:40;;;;;;;6.28;1.65;;;;;;;;;;5034970;28;20256;-74
2022/08/21 14:34:05;;;;;;;4.30;1.50;;;;;;;;;;5032013;28;20660;-73
2022/08/21 14:36:30;;;;;;;3.73;1.70;;;;;;;;;;5031014;28;20503;-73
2022/08/21 14:38:55;;;;;;;6.00;2.03;;;;;;;;;;5034949;28;20469;-73
2022/08/21 14:41:23;;;;;;;4.13;1.50;;;;;;;;;;5038139;28;20505;-71
2022/08/21 14:43:50;;;;;;;6.13;2.30;;;;;;;;;;5032396;28;20442;-74
2022/08/21 14:46:21;;;;;;;7.03;1.70;;;;;;;;;;5035622;28;20192;-73